Time;durP1;ratioP1;P1;durP2;ratioP2;P2;SDS_P1;SDS_P2;PMS_P1;PMS_P2;Temp;Humidity;BMP_temperature;BMP_pressure;BME280_temperature;BME280_humidity;BME280_pressure;Samples;Min_cycle;Max_cycle;Signal;HPM_P1;HPM_P2
2021/12/02 00:01:17;;;;;;;2.10;1.50;;;;;;;6.72;74.27;96222.70;104820;1316;22727;-84
2021/12/02 00:03:46;;;;;;;3.60;1.50;;;;;;;6.72;74.43;96223.09;104385;1320;137906;-84
2021/12/02 00:06:15;;;;;;;3.00;1.30;;;;;;;6.72;74.32;96217.14;104403;1322;24307;-84
2021/12/02 00:08:43;;;;;;;2.60;1.10;;;;;;;6.74;74.41;96223.02;104802;1321;137524;-83
2021/12/02 00:11:24;;;;;;;2.90;1.50;;;;;;;6.76;74.36;96215.50;104774;1316;22584;-84
2021/12/02 00:22:00;;;;;;;2.00;1.00;;;;;;;6.77;74.56;96209.98;104009;1322;137989;-83
2021/12/02 00:24:35;;;;;;;1.00;0.80;;;;;;;6.78;74.60;96211.33;103634;1323;22611;-83
2021/12/02 00:27:18;;;;;;;1.80;1.10;;;;;;;6.81;74.50;96209.42;103837;1323;137459;-83
2021/12/02 00:29:46;;;;;;;1.30;0.90;;;;;;;6.83;74.38;96212.63;104193;1316;22752;-84
2021/12/02 00:32:15;;;;;;;1.50;0.60;;;;;;;6.86;74.07;96210.16;104343;1320;138209;-83
2021/12/02 00:34:45;;;;;;;1.00;0.80;;;;;;;6.88;74.15;96204.84;104817;1316;24325;-83
2021/12/02 00:37:13;;;;;;;1.20;1.10;;;;;;;6.89;74.13;96211.89;103797;1316;22743;-83
2021/12/02 00:39:40;;;;;;;1.10;1.00;;;;;;;6.91;73.68;96210.19;103677;1317;137914;-83
2021/12/02 00:42:21;;;;;;;2.50;1.10;;;;;;;6.93;73.86;96217.05;105305;1323;22619;-84
2021/12/02 00:44:52;;;;;;;1.30;0.80;;;;;;;6.96;73.74;96217.31;104547;1315;137418;-84
2021/12/02 00:47:19;;;;;;;1.60;1.30;;;;;;;6.97;73.79;96213.08;104159;1322;23044;-83
2021/12/02 00:49:47;;;;;;;2.40;1.60;;;;;;;6.98;73.67;96214.81;104512;1316;22643;-84
2021/12/02 00:52:15;;;;;;;1.40;0.90;;;;;;;6.97;73.77;96217.41;104749;1317;137301;-83
2021/12/02 00:54:44;;;;;;;1.70;1.00;;;;;;;6.95;73.56;96218.78;105318;1320;25751;-84
2021/12/02 00:57:12;;;;;;;1.70;0.90;;;;;;;6.97;73.49;96223.91;104030;1316;138062;-84
2021/12/02 00:59:42;;;;;;;1.70;0.90;;;;;;;6.99;73.61;96226.52;103861;1316;25267;-83
2021/12/02 01:02:13;;;;;;;1.40;0.80;;;;;;;7.00;73.24;96228.45;103463;1316;137645;-84
2021/12/02 01:04:40;;;;;;;1.70;1.00;;;;;;;7.00;73.52;96227.10;103957;1322;22591;-84
2021/12/02 01:07:07;;;;;;;1.00;0.90;;;;;;;6.98;73.35;96230.78;104211;1322;23240;-84
2021/12/02 01:09:35;;;;;;;2.40;0.90;;;;;;;6.97;73.36;96237.39;103893;1323;137307;-83
2021/12/02 01:12:05;;;;;;;2.00;1.10;;;;;;;6.94;73.63;96235.45;104081;1321;22596;-84
2021/12/02 01:14:32;;;;;;;1.60;1.00;;;;;;;6.95;73.24;96230.20;104162;1317;138216;-85
2021/12/02 01:16:59;;;;;;;0.90;0.90;;;;;;;6.94;73.40;96220.46;103655;1320;25393;-84
2021/12/02 01:19:26;;;;;;;1.30;0.90;;;;;;;6.94;73.42;96213.11;104126;1322;25325;-84
2021/12/02 01:21:56;;;;;;;1.40;0.90;;;;;;;6.94;73.57;96214.67;104643;1315;137435;-84
2021/12/02 01:24:26;;;;;;;1.20;0.80;;;;;;;6.92;73.34;96221.39;105326;1321;30559;-85
2021/12/02 01:27:11;;;;;;;0.70;0.70;;;;;;;6.91;73.41;96216.36;103631;1316;137494;-84
2021/12/02 01:29:39;;;;;;;1.10;0.80;;;;;;;6.92;73.63;96218.53;103670;1316;23965;-84
2021/12/02 01:32:10;;;;;;;0.60;0.60;;;;;;;6.93;73.71;96208.56;103999;1316;138141;-83
2021/12/02 01:34:39;;;;;;;0.80;0.70;;;;;;;6.93;73.34;96213.27;103602;1319;30737;-84
2021/12/02 01:37:10;;;;;;;1.00;0.80;;;;;;;6.94;73.53;96219.11;104525;1321;22576;-84
2021/12/02 01:39:37;;;;;;;3.90;1.70;;;;;;;6.93;73.24;96213.81;104280;1321;137978;-84
2021/12/02 01:42:09;;;;;;;1.00;0.70;;;;;;;6.93;73.50;96206.45;104086;1316;23870;-84
2021/12/02 01:44:41;;;;;;;1.00;0.70;;;;;;;6.92;73.27;96206.77;103858;1321;137220;-84
2021/12/02 01:47:14;;;;;;;1.20;0.80;;;;;;;6.93;73.27;96211.59;104800;1322;23148;-84
2021/12/02 01:49:43;;;;;;;1.30;0.90;;;;;;;6.94;72.83;96218.90;103840;1322;22715;-84
2021/12/02 01:52:12;;;;;;;1.60;0.90;;;;;;;6.96;73.08;96217.59;103950;1315;137690;-84
2021/12/02 01:54:44;;;;;;;2.00;0.60;;;;;;;6.96;73.23;96219.55;104053;1318;22721;-84
2021/12/02 01:57:29;;;;;;;1.50;1.10;;;;;;;6.94;73.19;96218.84;104635;1316;137440;-84
2021/12/02 02:00:19;;;;;;;1.10;1.00;;;;;;;6.92;73.21;96217.38;104917;1319;22802;-84
2021/12/02 02:02:48;;;;;;;2.80;0.90;;;;;;;6.91;73.03;96212.86;105375;1316;138260;-84
2021/12/02 02:05:17;;;;;;;2.20;1.00;;;;;;;6.90;73.03;96210.30;105245;1320;30579;-84
2021/12/02 02:08:06;;;;;;;0.90;0.80;;;;;;;6.90;72.89;96213.49;105034;1317;22736;-84
2021/12/02 02:10:36;;;;;;;1.70;1.00;;;;;;;6.89;72.98;96211.93;104758;1316;137518;-84
2021/12/02 02:13:07;;;;;;;2.10;1.00;;;;;;;6.86;73.20;96214.83;105380;1315;22557;-85
2021/12/02 02:15:36;;;;;;;0.90;0.70;;;;;;;6.81;73.36;96223.77;103495;1317;137463;-84
2021/12/02 02:21:08;;;;;;;1.20;0.90;;;;;;;6.72;73.35;96217.63;103645;1318;137510;-84
2021/12/02 02:23:43;;;;;;;2.00;0.80;;;;;;;6.69;73.55;96214.44;105258;1316;22449;-85
2021/12/02 02:26:10;;;;;;;1.10;0.90;;;;;;;6.68;73.38;96215.69;105218;1316;23359;-84
2021/12/02 02:28:37;;;;;;;1.10;0.70;;;;;;;6.66;73.81;96216.66;104605;1315;137404;-85
2021/12/02 02:31:06;;;;;;;0.90;0.90;;;;;;;6.64;73.75;96219.16;104258;1316;22617;-84
2021/12/02 02:33:37;;;;;;;1.00;0.70;;;;;;;6.64;73.92;96229.11;105146;1315;137999;-83
2021/12/02 02:36:07;;;;;;;2.40;1.00;;;;;;;6.64;73.83;96232.41;103702;1322;22626;-83
2021/12/02 02:38:35;;;;;;;2.00;0.90;;;;;;;6.66;73.87;96240.19;104174;1315;138378;-84
2021/12/02 02:41:07;;;;;;;1.40;0.90;;;;;;;6.68;73.91;96241.12;104923;1323;22581;-84
2021/12/02 02:43:35;;;;;;;;;;;;;;;6.71;73.70;96241.48;103727;1318;22606;-83
2021/12/02 02:46:02;;;;;;;2.00;0.90;;;;;;;6.73;73.91;96240.23;103759;1316;124088;-84
2021/12/02 02:48:30;;;;;;;0.90;0.80;;;;;;;6.74;73.87;96235.73;104879;1315;22548;-84
2021/12/02 02:50:57;;;;;;;1.50;1.10;;;;;;;6.74;74.04;96240.87;104449;1320;137621;-84
2021/12/02 02:53:26;;;;;;;2.10;1.10;;;;;;;6.73;73.89;96238.54;104730;1319;23331;-83
2021/12/02 03:04:02;;;;;;;1.30;1.00;;;;;;;6.69;74.41;96241.11;103717;1317;138364;-85
2021/12/02 03:06:51;;;;;;;1.00;0.90;;;;;;;6.69;74.42;96243.92;104289;1317;31982;-84
2021/12/02 03:11:56;;;;;;;1.80;0.90;;;;;;;6.68;74.30;96255.83;103916;1317;25304;-85
2021/12/02 03:14:32;;;;;;;2.30;0.90;;;;;;;6.68;74.55;96256.64;104792;1322;137849;-84
2021/12/02 03:16:59;;;;;;;0.90;0.80;;;;;;;6.66;74.37;96263.08;103723;1318;31851;-84
2021/12/02 03:19:28;;;;;;;1.60;0.80;;;;;;;6.64;74.58;96254.77;103881;1316;25489;-84
2021/12/02 03:21:58;;;;;;;3.10;1.00;;;;;;;6.64;74.38;96256.54;103571;1319;138042;-84
2021/12/02 03:24:25;;;;;;;1.40;1.00;;;;;;;6.63;74.34;96261.79;103880;1317;22601;-84
2021/12/02 03:26:52;;;;;;;1.20;1.00;;;;;;;6.61;74.47;96262.87;104334;1319;137462;-84
2021/12/02 03:29:19;;;;;;;1.30;1.10;;;;;;;6.58;74.45;96262.45;103792;1315;25332;-84
2021/12/02 03:31:46;;;;;;;2.20;1.30;;;;;;;6.56;74.47;96265.21;104090;1319;23390;-84
2021/12/02 03:34:13;;;;;;;1.40;1.00;;;;;;;6.52;74.68;96268.73;104364;1318;137181;-83
2021/12/02 03:36:41;;;;;;;1.30;1.00;;;;;;;6.51;74.61;96269.60;103937;1318;24477;-83
2021/12/02 03:39:10;;;;;;;1.00;0.90;;;;;;;6.51;74.57;96267.54;103609;1322;137785;-84
2021/12/02 03:41:41;;;;;;;1.50;1.10;;;;;;;6.52;74.88;96263.65;103808;1323;24394;-84
2021/12/02 03:44:09;;;;;;;1.20;1.10;;;;;;;6.52;74.62;96263.27;103934;1318;24405;-82
2021/12/02 03:46:37;;;;;;;1.10;1.00;;;;;;;6.51;74.55;96261.16;104293;1322;137275;-83
2021/12/02 03:49:05;;;;;;;1.10;0.90;;;;;;;6.49;74.60;96257.98;104145;1315;22660;-83
2021/12/02 03:51:34;;;;;;;1.60;1.40;;;;;;;6.47;74.63;96264.95;103822;1316;137967;-81
2021/12/02 03:54:01;;;;;;;2.80;1.40;;;;;;;6.46;74.59;96260.05;103996;1316;22567;-83
2021/12/02 03:56:28;;;;;;;3.00;1.20;;;;;;;6.48;74.66;96254.57;104312;1320;138127;-83
2021/12/02 03:58:55;;;;;;;1.40;1.20;;;;;;;6.50;74.59;96250.57;104202;1320;24661;-83
2021/12/02 04:01:24;;;;;;;1.80;1.20;;;;;;;6.51;74.39;96250.83;103679;1322;24253;-84
2021/12/02 04:03:52;;;;;;;2.00;1.10;;;;;;;6.50;74.17;96254.45;103643;1319;137831;-84
2021/12/02 04:06:20;;;;;;;4.20;1.60;;;;;;;6.49;74.33;96260.63;104411;1320;22587;-85
2021/12/02 04:16:22;;;;;;;1.20;1.10;;;;;;;6.40;74.05;96256.41;104102;1322;138364;-83
2021/12/02 04:18:49;;;;;;;2.40;1.00;;;;;;;6.39;74.24;96253.27;104532;1321;25267;-83
2021/12/02 04:21:16;;;;;;;1.90;1.50;;;;;;;6.37;74.24;96257.17;103513;1316;137261;-82
2021/12/02 04:23:43;;;;;;;1.60;1.30;;;;;;;6.36;74.03;96253.29;103378;1319;22625;-83
2021/12/02 04:26:10;;;;;;;1.40;1.30;;;;;;;6.34;74.20;96253.82;103768;1322;22552;-83
2021/12/02 04:28:37;;;;;;;2.20;1.00;;;;;;;6.32;73.95;96256.59;103764;1315;138084;-83
2021/12/02 04:31:08;;;;;;;1.20;1.10;;;;;;;6.30;73.85;96253.83;104336;1319;22574;-82
2021/12/02 04:33:38;;;;;;;1.30;1.20;;;;;;;6.30;73.86;96253.04;104364;1315;137397;-82
2021/12/02 04:36:22;;;;;;;2.50;1.30;;;;;;;6.27;73.86;96256.77;104984;1317;22591;-83
2021/12/02 04:38:51;;;;;;;1.40;1.20;;;;;;;6.29;74.00;96267.36;103583;1315;137526;-83
2021/12/02 04:41:33;;;;;;;1.40;0.90;;;;;;;6.26;73.92;96272.86;104820;1316;22722;-84
2021/12/02 04:44:00;;;;;;;3.00;1.40;;;;;;;6.24;73.99;96279.73;103716;1320;25363;-83
2021/12/02 04:46:29;;;;;;;3.50;1.70;;;;;;;6.22;73.89;96281.95;103712;1321;199319;-84
2021/12/02 04:48:56;;;;;;;3.60;1.30;;;;;;;6.21;73.90;96284.98;103457;1316;22673;-84
2021/12/02 04:51:37;;;;;;;1.70;1.10;;;;;;;6.23;73.95;96287.64;103734;1321;137372;-84
2021/12/02 04:54:18;;;;;;;1.90;1.20;;;;;;;6.22;73.83;96287.58;103801;1323;22610;-84
2021/12/02 04:57:00;;;;;;;2.10;1.80;;;;;;;6.17;73.88;96285.14;103884;1319;137280;-83
2021/12/02 04:59:27;;;;;;;1.80;1.30;;;;;;;6.20;73.83;96289.46;103573;1315;22674;-84
2021/12/02 05:01:54;;;;;;;1.80;1.20;;;;;;;6.18;73.97;96290.82;103817;1317;22583;-83
2021/12/02 05:04:23;;;;;;;2.70;1.30;;;;;;;6.17;74.01;96287.36;103624;1318;138133;-83
2021/12/02 05:06:50;;;;;;;3.30;1.30;;;;;;;6.17;74.04;96283.40;103843;1318;22796;-84
2021/12/02 05:09:19;;;;;;;1.50;1.40;;;;;;;6.16;74.17;96284.88;103730;1315;137757;-84
2021/12/02 05:11:46;;;;;;;2.90;1.50;;;;;;;6.14;74.25;96283.19;103886;1321;22584;-83
2021/12/02 05:14:27;;;;;;;3.10;1.60;;;;;;;6.12;74.15;96280.45;103481;1315;138130;-84
2021/12/02 05:16:54;;;;;;;1.60;1.30;;;;;;;6.08;74.46;96280.00;103872;1319;25340;-83
2021/12/02 05:19:21;;;;;;;4.10;2.80;;;;;;;6.05;74.42;96281.46;103821;1316;25377;-83
2021/12/02 05:21:48;;;;;;;4.20;2.30;;;;;;;6.04;74.33;96285.30;103745;1315;138085;-84
2021/12/02 05:24:15;;;;;;;4.10;2.20;;;;;;;6.04;74.29;96285.24;103537;1321;22611;-84
2021/12/02 05:26:42;;;;;;;4.90;2.10;;;;;;;6.03;74.45;96289.84;103577;1321;138320;-83
2021/12/02 05:29:09;;;;;;;3.00;2.50;;;;;;;6.03;74.35;96287.34;103633;1318;24395;-83
2021/12/02 05:31:36;;;;;;;6.20;2.50;;;;;;;6.02;74.53;96287.13;104272;1316;22618;-84
2021/12/02 05:34:03;;;;;;;5.40;2.50;;;;;;;5.99;74.35;96286.55;104465;1321;137657;-83
2021/12/02 05:36:30;;;;;;;5.00;2.40;;;;;;;5.97;74.24;96291.61;104122;1322;22513;-84
2021/12/02 05:39:10;;;;;;;3.90;2.20;;;;;;;5.95;74.17;96292.67;103489;1315;137793;-84
2021/12/02 05:41:37;;;;;;;4.90;2.10;;;;;;;5.94;74.25;96299.69;103549;1322;22772;-84
2021/12/02 05:44:04;;;;;;;4.20;2.10;;;;;;;5.93;74.18;96304.33;103716;1316;22774;-83
2021/12/02 05:46:32;;;;;;;3.90;2.20;;;;;;;5.93;74.14;96303.67;103678;1318;137560;-84
2021/12/02 05:48:59;;;;;;;4.80;3.00;;;;;;;5.90;74.25;96309.62;103599;1315;25438;-84
2021/12/02 05:51:26;;;;;;;6.60;2.70;;;;;;;5.89;74.16;96310.80;103840;1315;137958;-84
2021/12/02 05:53:52;;;;;;;6.90;2.70;;;;;;;5.87;74.22;96322.48;104246;1315;22660;-84
2021/12/02 05:56:33;;;;;;;6.70;2.30;;;;;;;5.84;74.28;96333.22;103887;1315;137974;-84
2021/12/02 05:59:00;;;;;;;4.80;2.40;;;;;;;5.84;74.25;96339.00;104066;1318;22606;-84
2021/12/02 06:01:27;;;;;;;7.60;2.60;;;;;;;5.86;74.32;96335.87;103753;1315;22978;-83
2021/12/02 06:03:54;;;;;;;7.60;2.90;;;;;;;5.88;74.18;96339.16;103240;1318;137322;-83
2021/12/02 06:06:25;;;;;;;6.40;2.90;;;;;;;5.87;74.15;96341.48;103514;1317;23351;-84
2021/12/02 06:08:53;;;;;;;6.10;2.60;;;;;;;5.86;74.23;96341.38;104034;1320;137368;-85
2021/12/02 06:11:20;;;;;;;6.60;2.70;;;;;;;5.83;74.11;96343.65;103737;1321;23431;-84
2021/12/02 06:14:03;;;;;;;10.30;3.30;;;;;;;5.79;74.16;96347.70;103592;1315;22746;-83
2021/12/02 06:16:30;;;;;;;5.70;2.50;;;;;;;5.76;74.23;96347.20;103797;1321;138040;-85
2021/12/02 06:18:57;;;;;;;4.50;2.20;;;;;;;5.74;74.10;96355.83;103720;1322;24330;-85
2021/12/02 06:21:24;;;;;;;3.40;1.90;;;;;;;5.72;74.22;96357.98;103788;1316;137419;-86
2021/12/02 06:23:51;;;;;;;4.20;1.90;;;;;;;5.70;74.16;96357.21;103781;1316;24416;-85
2021/12/02 06:26:32;;;;;;;4.20;1.60;;;;;;;5.68;74.38;96364.40;103351;1317;137513;-83
2021/12/02 06:28:59;;;;;;;3.10;1.60;;;;;;;5.67;74.32;96364.55;103339;1323;25355;-86
2021/12/02 06:31:26;;;;;;;3.60;1.90;;;;;;;5.64;74.49;96369.14;103733;1315;22611;-84
2021/12/02 06:34:07;;;;;;;2.70;1.70;;;;;;;5.62;74.42;96371.19;103588;1317;137789;-85
2021/12/02 06:36:36;;;;;;;3.90;1.90;;;;;;;5.61;74.18;96371.46;103980;1316;22748;-84
2021/12/02 06:39:05;;;;;;;3.30;1.90;;;;;;;5.62;74.41;96376.41;103623;1316;137538;-85
2021/12/02 06:41:33;;;;;;;4.20;1.80;;;;;;;5.62;74.40;96377.29;103700;1322;24427;-85
2021/12/02 06:44:00;;;;;;;2.90;1.50;;;;;;;5.61;74.46;96378.09;103784;1315;25509;-84
2021/12/02 06:46:41;;;;;;;4.90;2.10;;;;;;;5.63;74.54;96382.31;104519;1322;137558;-83
2021/12/02 06:49:08;;;;;;;5.60;2.80;;;;;;;5.64;74.79;96388.38;105145;1321;22598;-84
2021/12/02 06:51:49;;;;;;;3.80;2.00;;;;;;;5.66;74.79;96389.98;103809;1316;138337;-83
2021/12/02 06:54:16;;;;;;;5.30;2.30;;;;;;;5.71;74.79;96394.06;104453;1315;25249;-83
2021/12/02 06:56:43;;;;;;;5.80;2.30;;;;;;;5.75;75.06;96393.70;103762;1318;137530;-83
2021/12/02 06:59:10;;;;;;;4.30;2.40;;;;;;;5.78;75.09;96394.24;104227;1316;25252;-83
2021/12/02 07:01:37;;;;;;;7.10;2.80;;;;;;;5.80;75.09;96395.77;103921;1315;22799;-83
2021/12/02 07:04:04;;;;;;;8.40;2.70;;;;;;;5.81;75.20;96394.31;104622;1316;137799;-84
2021/12/02 07:06:31;;;;;;;4.90;2.60;;;;;;;5.82;75.29;96391.92;104998;1317;22290;-84
2021/12/02 07:08:58;;;;;;;5.60;3.00;;;;;;;5.84;75.27;96396.74;104847;1320;138152;-83
2021/12/02 07:11:25;;;;;;;7.60;4.00;;;;;;;5.87;75.31;96395.67;103770;1321;30198;-83
2021/12/02 07:14:00;;;;;;;5.20;2.30;;;;;;;5.92;75.31;96397.85;103745;1321;25333;-84
2021/12/02 07:16:27;;;;;;;6.20;3.20;;;;;;;5.97;75.31;96398.27;103979;1315;137894;-84
2021/12/02 07:18:57;;;;;;;4.20;2.40;;;;;;;6.02;75.19;96401.75;104470;1314;23393;-84
2021/12/02 07:21:24;;;;;;;3.60;2.20;;;;;;;6.05;75.03;96402.18;104715;1322;137671;-83
2021/12/02 07:23:52;;;;;;;7.60;3.40;;;;;;;6.10;75.05;96407.34;104259;1317;22631;-84
2021/12/02 07:26:19;;;;;;;4.10;2.30;;;;;;;6.15;74.90;96412.80;104650;1318;24310;-83
2021/12/02 07:28:46;;;;;;;4.70;2.80;;;;;;;6.20;74.86;96413.52;104056;1316;138062;-83
2021/12/02 07:31:14;;;;;;;10.50;3.50;;;;;;;6.25;74.74;96415.89;103791;1316;22581;-83
2021/12/02 07:33:43;;;;;;;4.70;2.50;;;;;;;6.32;74.67;96404.02;104767;1319;137983;-83
2021/12/02 07:36:10;;;;;;;6.70;3.30;;;;;;;6.40;74.72;96397.98;104035;1320;22609;-84
2021/12/02 07:38:40;;;;;;;3.40;2.00;;;;;;;6.46;74.53;96404.23;103842;1318;23307;-83
2021/12/02 07:41:07;;;;;;;6.10;2.70;;;;;;;6.52;74.49;96407.55;104000;1319;137276;-84
2021/12/02 07:43:37;;;;;;;7.30;3.30;;;;;;;6.56;74.13;96410.52;104234;1317;22603;-84
2021/12/02 07:46:04;;;;;;;;;;;;;;;6.59;73.60;96420.21;104803;1315;137946;-83
2021/12/02 07:48:31;;;;;;;5.50;2.70;;;;;;;6.62;73.57;96416.21;104911;1316;25204;-83
2021/12/02 07:51:01;;;;;;;6.60;3.00;;;;;;;6.67;73.50;96424.48;105319;1315;138567;-84
2021/12/02 07:53:29;;;;;;;5.10;3.20;;;;;;;6.71;73.24;96418.75;104828;1323;23327;-84
2021/12/02 07:55:57;;;;;;;6.70;2.70;;;;;;;6.73;73.42;96426.11;103706;1318;22606;-83
2021/12/02 07:58:24;;;;;;;4.00;2.50;;;;;;;6.76;73.31;96432.02;103641;1317;137338;-84
2021/12/02 08:00:52;;;;;;;7.60;2.80;;;;;;;6.76;73.06;96430.05;103969;1322;22658;-83
2021/12/02 08:03:20;;;;;;;4.00;2.50;;;;;;;6.77;73.11;96429.57;103539;1315;138291;-83
2021/12/02 08:05:46;;;;;;;5.40;2.90;;;;;;;6.77;73.07;96439.75;103732;1322;22879;-84
2021/12/02 08:08:27;;;;;;;6.00;2.40;;;;;;;6.79;73.40;96441.59;103604;1316;23360;-83
2021/12/02 08:10:54;;;;;;;4.10;2.20;;;;;;;6.80;73.22;96435.90;103919;1315;137657;-84
2021/12/02 08:13:30;;;;;;;4.00;2.60;;;;;;;6.85;73.05;96432.23;104135;1318;22750;-84
2021/12/02 08:16:11;;;;;;;8.10;2.50;;;;;;;6.90;73.11;96437.84;104920;1317;137922;-84
2021/12/02 08:18:38;;;;;;;4.90;2.40;;;;;;;6.94;72.89;96441.05;104305;1315;22592;-84
2021/12/02 08:21:05;;;;;;;4.60;2.80;;;;;;;6.97;72.65;96443.20;104228;1316;137633;-84
2021/12/02 08:23:32;;;;;;;5.20;2.00;;;;;;;6.97;72.92;96442.34;103756;1318;35646;-84
2021/12/02 08:25:59;;;;;;;4.20;1.70;;;;;;;6.97;72.76;96441.10;103854;1316;22666;-84
2021/12/02 08:28:26;;;;;;;7.20;2.80;;;;;;;6.97;72.10;96438.48;104207;1316;137694;-84
2021/12/02 08:30:53;;;;;;;3.40;2.00;;;;;;;6.98;72.42;96448.56;103887;1321;23441;-84
2021/12/02 08:33:20;;;;;;;4.10;2.30;;;;;;;7.00;72.32;96456.04;104118;1322;138169;-84
2021/12/02 08:35:48;;;;;;;4.80;2.70;;;;;;;7.00;72.54;96462.79;103919;1321;22687;-83
2021/12/02 08:38:17;;;;;;;5.60;2.30;;;;;;;7.00;72.28;96466.48;103818;1316;22586;-85
2021/12/02 08:40:48;;;;;;;4.00;1.90;;;;;;;7.00;72.48;96474.23;104029;1318;137429;-84
2021/12/02 08:43:17;;;;;;;3.30;2.10;;;;;;;6.98;72.88;96476.11;104259;1316;30179;-84
2021/12/02 08:45:44;;;;;;;5.10;2.50;;;;;;;6.97;73.20;96474.43;104062;1316;137196;-84
2021/12/02 08:48:12;;;;;;;7.30;3.30;;;;;;;6.95;73.83;96468.59;103827;1315;23413;-84
2021/12/02 08:50:39;;;;;;;6.60;3.30;;;;;;;6.96;73.90;96467.50;104239;1321;25355;-83
2021/12/02 08:53:08;;;;;;;6.30;3.40;;;;;;;7.00;74.06;96474.97;103470;1314;138488;-84
2021/12/02 08:55:36;;;;;;;4.80;2.80;;;;;;;7.01;73.93;96480.28;103597;1318;26106;-83
2021/12/02 08:58:04;;;;;;;5.20;2.70;;;;;;;7.03;73.66;96479.84;104076;1318;137277;-83
2021/12/02 09:00:33;;;;;;;4.40;2.80;;;;;;;7.03;73.76;96480.61;103840;1319;22653;-83
2021/12/02 09:03:02;;;;;;;5.40;3.20;;;;;;;7.05;73.85;96478.60;103532;1320;137380;-83
2021/12/02 09:05:32;;;;;;;5.80;2.70;;;;;;;7.06;73.70;96480.27;104162;1316;23034;-83
2021/12/02 09:07:59;;;;;;;4.20;2.50;;;;;;;7.08;73.63;96487.14;103919;1317;24386;-84
2021/12/02 09:10:28;;;;;;;5.20;2.90;;;;;;;7.11;73.72;96488.45;103677;1315;138101;-83
2021/12/02 09:13:03;;;;;;;5.80;2.80;;;;;;;7.14;73.83;96482.18;104244;1318;22634;-83
2021/12/02 09:15:46;;;;;;;6.70;3.10;;;;;;;7.18;73.84;96478.65;103508;1321;137876;-83
2021/12/02 09:18:19;;;;;;;5.20;2.90;;;;;;;7.21;73.89;96481.18;103906;1317;24376;-83
2021/12/02 09:20:51;;;;;;;6.20;2.90;;;;;;;7.21;73.55;96486.50;103493;1317;137703;-83
2021/12/02 09:23:25;;;;;;;5.90;2.80;;;;;;;7.22;73.53;96487.58;103778;1316;22620;-83
2021/12/02 09:25:56;;;;;;;5.20;2.30;;;;;;;7.24;73.34;96492.00;104433;1322;22611;-83
2021/12/02 09:28:29;;;;;;;5.10;2.70;;;;;;;7.27;73.29;96484.64;104087;1316;138234;-84
2021/12/02 09:30:59;;;;;;;5.00;2.80;;;;;;;7.31;73.22;96486.70;103895;1316;25678;-84
2021/12/02 09:33:28;;;;;;;4.90;2.30;;;;;;;7.34;72.69;96486.27;104002;1317;137381;-83
2021/12/02 09:35:56;;;;;;;5.90;2.60;;;;;;;7.36;72.66;96481.92;103575;1321;23510;-84
2021/12/02 09:38:23;;;;;;;6.70;2.40;;;;;;;7.38;72.39;96480.19;104705;1318;22642;-83
2021/12/02 09:40:50;;;;;;;7.70;2.60;;;;;;;7.41;72.69;96482.24;103861;1317;137253;-83
2021/12/02 09:43:18;;;;;;;3.10;2.10;;;;;;;7.44;72.63;96478.61;103785;1316;22577;-84
2021/12/02 09:45:45;;;;;;;4.50;2.50;;;;;;;7.46;72.28;96478.29;104109;1322;137816;-83
2021/12/02 09:48:13;;;;;;;6.00;2.70;;;;;;;7.47;72.10;96477.09;103556;1323;22608;-83
2021/12/02 09:51:03;;;;;;;7.60;3.70;;;;;;;7.48;71.50;96474.16;103753;1316;137862;-84
2021/12/02 09:53:37;;;;;;;6.20;3.10;;;;;;;7.49;71.58;96466.14;104410;1320;25241;-83
2021/12/02 09:58:31;;;;;;;6.50;3.60;;;;;;;7.49;71.31;96475.80;103781;1317;137517;-84
2021/12/02 10:03:34;;;;;;;9.30;3.50;;;;;;;7.46;71.02;96478.17;104368;1316;137515;-83
2021/12/02 10:06:08;;;;;;;7.60;4.20;;;;;;;7.45;71.62;96481.16;103498;1317;24057;-83
2021/12/02 10:08:46;;;;;;;5.50;2.60;;;;;;;7.45;71.15;96490.73;103772;1318;22600;-83
2021/12/02 10:11:30;;;;;;;7.80;3.10;;;;;;;7.44;70.86;96491.55;103876;1319;137373;-83
2021/12/02 10:14:12;;;;;;;6.40;3.10;;;;;;;7.44;70.92;96489.86;103842;1315;26138;-83
2021/12/02 10:16:43;;;;;;;8.60;4.10;;;;;;;7.44;71.13;96493.34;104402;1318;137807;-84
2021/12/02 10:19:12;;;;;;;4.70;2.90;;;;;;;7.45;70.75;96496.60;103729;1316;24439;-83
2021/12/02 10:21:51;;;;;;;6.00;3.10;;;;;;;7.46;70.53;96502.77;103849;1321;137453;-84
2021/12/02 10:24:23;;;;;;;8.30;3.60;;;;;;;7.46;69.69;96504.34;104074;1316;25332;-83
2021/12/02 10:26:54;;;;;;;7.50;2.80;;;;;;;7.46;69.99;96506.50;103532;1316;137443;-84
2021/12/02 10:29:38;;;;;;;4.40;1.70;;;;;;;7.48;69.49;96514.73;103454;1320;22565;-84
2021/12/02 10:32:21;;;;;;;3.30;1.70;;;;;;;7.48;68.82;96510.34;103731;1321;24342;-83
2021/12/02 10:35:01;;;;;;;6.10;1.70;;;;;;;7.49;69.21;96509.09;103685;1323;137848;-83
2021/12/02 10:37:34;;;;;;;3.40;1.80;;;;;;;7.52;68.84;96515.44;103826;1316;23985;-83
2021/12/02 10:40:15;;;;;;;2.70;1.40;;;;;;;7.54;68.50;96516.46;103650;1317;137464;-83
2021/12/02 10:42:45;;;;;;;3.50;1.40;;;;;;;7.55;67.71;96516.23;103765;1318;22617;-84
2021/12/02 10:45:30;;;;;;;3.60;1.70;;;;;;;7.55;67.54;96517.86;103960;1320;137895;-83
2021/12/02 10:47:58;;;;;;;3.30;1.20;;;;;;;7.55;67.74;96512.76;104054;1315;22606;-84
2021/12/02 10:50:26;;;;;;;2.20;0.90;;;;;;;7.56;67.83;96514.13;103960;1315;24343;-83
2021/12/02 10:53:02;;;;;;;9.40;1.80;;;;;;;7.56;67.54;96506.97;103859;1317;137465;-84
2021/12/02 10:55:31;;;;;;;3.80;1.40;;;;;;;7.56;67.52;96507.67;103825;1315;22806;-85
2021/12/02 10:58:00;;;;;;;2.70;1.40;;;;;;;7.56;67.74;96505.13;103523;1315;137279;-84
2021/12/02 11:00:34;;;;;;;3.90;1.60;;;;;;;7.56;67.76;96503.73;104241;1321;22727;-83
2021/12/02 11:03:09;;;;;;;2.60;1.40;;;;;;;7.55;67.54;96516.55;103573;1321;137510;-83
2021/12/02 11:05:44;;;;;;;2.10;1.10;;;;;;;7.55;67.33;96509.47;103541;1321;27683;-83
2021/12/02 11:08:13;;;;;;;1.80;1.20;;;;;;;7.56;67.53;96507.79;104020;1316;22637;-83
2021/12/02 11:10:54;;;;;;;2.60;1.30;;;;;;;7.61;67.56;96511.50;103595;1320;137870;-84
2021/12/02 11:13:25;;;;;;;4.30;1.40;;;;;;;7.64;66.95;96503.76;104087;1320;26736;-84
2021/12/02 11:15:53;;;;;;;4.20;1.30;;;;;;;7.65;66.99;96504.63;103614;1321;137893;-84
2021/12/02 11:18:22;;;;;;;4.40;1.60;;;;;;;7.65;67.19;96506.25;103771;1316;22614;-83
2021/12/02 11:20:57;;;;;;;4.00;1.40;;;;;;;7.66;67.18;96511.88;103283;1316;138042;-84
2021/12/02 11:23:30;;;;;;;2.30;1.20;;;;;;;7.65;66.20;96511.45;104355;1319;22589;-84
2021/12/02 11:26:11;;;;;;;2.40;1.10;;;;;;;7.62;65.66;96505.88;104207;1322;22713;-83
2021/12/02 11:28:41;;;;;;;7.20;2.30;;;;;;;7.59;65.74;96505.06;104075;1321;137671;-85
2021/12/02 11:31:17;;;;;;;3.70;1.60;;;;;;;7.57;65.65;96506.05;104273;1320;37258;-83
2021/12/02 11:33:45;;;;;;;4.90;1.60;;;;;;;7.55;65.75;96504.05;104620;1316;137106;-84
2021/12/02 11:36:24;;;;;;;4.00;1.50;;;;;;;7.54;66.14;96507.41;103847;1322;22640;-85
2021/12/02 11:38:56;;;;;;;6.00;1.20;;;;;;;7.55;66.39;96507.95;104550;1318;137320;-84
2021/12/02 11:41:37;;;;;;;3.40;1.40;;;;;;;7.56;66.65;96517.04;103750;1323;22311;-84
2021/12/02 11:44:05;;;;;;;4.80;1.90;;;;;;;7.56;66.68;96515.14;104065;1316;22650;-84
2021/12/02 11:46:32;;;;;;;7.90;2.30;;;;;;;7.57;66.87;96515.14;104048;1319;137188;-84
2021/12/02 11:49:00;;;;;;;5.80;1.80;;;;;;;7.58;66.87;96511.90;103899;1316;25262;-85
2021/12/02 11:51:27;;;;;;;6.90;2.40;;;;;;;7.62;67.22;96512.69;104027;1322;138276;-82
2021/12/02 11:53:56;;;;;;;4.40;1.90;;;;;;;7.66;67.03;96512.54;104126;1320;22581;-84
2021/12/02 11:56:23;;;;;;;4.20;1.80;;;;;;;7.68;66.23;96512.20;103467;1316;22573;-84
2021/12/02 11:58:51;;;;;;;6.30;2.50;;;;;;;7.71;66.21;96511.16;103428;1316;137283;-84
2021/12/02 12:01:25;;;;;;;6.50;1.60;;;;;;;7.73;65.54;96510.40;103771;1315;22591;-84
2021/12/02 12:04:11;;;;;;;4.30;2.20;;;;;;;7.72;65.40;96509.11;103602;1321;137498;-84
2021/12/02 12:06:43;;;;;;;4.20;1.70;;;;;;;7.72;64.87;96507.75;103674;1317;25753;-84
2021/12/02 12:09:18;;;;;;;4.40;1.90;;;;;;;7.69;64.73;96505.38;103573;1317;137936;-84
2021/12/02 12:11:51;;;;;;;2.70;1.50;;;;;;;7.67;64.77;96508.30;104125;1315;22691;-85
2021/12/02 12:14:37;;;;;;;3.00;1.40;;;;;;;7.63;64.29;96515.79;103723;1322;25368;-83
2021/12/02 12:17:15;;;;;;;5.20;2.10;;;;;;;7.58;64.56;96513.69;103702;1323;137264;-84
2021/12/02 12:19:49;;;;;;;5.60;2.70;;;;;;;7.56;65.05;96519.65;103855;1321;22574;-85